sensor_id;sensor_type;location;lat;lon;timestamp;temperature;humidity
21612;DHT22;47005;52.292;13.452;2024-03-02T00:00:01;9.30;99.90
21612;DHT22;47005;52.292;13.452;2024-03-02T00:02:41;9.30;99.90
21612;DHT22;47005;52.292;13.452;2024-03-02T00:05:07;9.30;99.90
21612;DHT22;47005;52.292;13.452;2024-03-02T00:07:33;9.30;99.90
21612;DHT22;47005;52.292;13.452;2024-03-02T00:09:59;9.30;99.90
21612;DHT22;47005;52.292;13.452;2024-03-02T00:12:25;9.30;99.90
21612;DHT22;47005;52.292;13.452;2024-03-02T00:14:51;9.40;99.90
21612;DHT22;47005;52.292;13.452;2024-03-02T00:17:25;9.40;99.90
21612;DHT22;47005;52.292;13.452;2024-03-02T00:19:51;9.40;99.90
21612;DHT22;47005;52.292;13.452;2024-03-02T00:22:18;9.40;99.90
21612;DHT22;47005;52.292;13.452;2024-03-02T00:24:43;9.40;99.90
21612;DHT22;47005;52.292;13.452;2024-03-02T00:27:13;9.40;99.90
21612;DHT22;47005;52.292;13.452;2024-03-02T00:29:40;9.40;99.90
21612;DHT22;47005;52.292;13.452;2024-03-02T00:32:12;9.30;99.90
21612;DHT22;47005;52.292;13.452;2024-03-02T00:34:39;9.40;99.90
21612;DHT22;47005;52.292;13.452;2024-03-02T00:37:05;9.40;99.90
21612;DHT22;47005;52.292;13.452;2024-03-02T00:39:31;9.40;99.90
21612;DHT22;47005;52.292;13.452;2024-03-02T00:41:57;9.40;99.90
21612;DHT22;47005;52.292;13.452;2024-03-02T00:44:25;9.30;99.90
21612;DHT22;47005;52.292;13.452;2024-03-02T00:46:52;9.40;99.90
21612;DHT22;47005;52.292;13.452;2024-03-02T00:49:23;9.30;99.90
21612;DHT22;47005;52.292;13.452;2024-03-02T00:51:50;9.40;99.90
21612;DHT22;47005;52.292;13.452;2024-03-02T00:54:22;9.30;99.90
21612;DHT22;47005;52.292;13.452;2024-03-02T00:56:50;9.30;99.90
21612;DHT22;47005;52.292;13.452;2024-03-02T00:59:16;9.30;99.90
21612;DHT22;47005;52.292;13.452;2024-03-02T01:01:42;9.30;99.90
21612;DHT22;47005;52.292;13.452;2024-03-02T01:04:08;9.30;99.90
21612;DHT22;47005;52.292;13.452;2024-03-02T01:06:35;9.30;99.90
21612;DHT22;47005;52.292;13.452;2024-03-02T01:09:01;9.30;99.90
21612;DHT22;47005;52.292;13.452;2024-03-02T01:11:28;9.30;99.90
21612;DHT22;47005;52.292;13.452;2024-03-02T01:13:54;9.30;99.90
21612;DHT22;47005;52.292;13.452;2024-03-02T01:16:19;9.30;99.90
21612;DHT22;47005;52.292;13.452;2024-03-02T01:18:45;9.30;99.90
21612;DHT22;47005;52.292;13.452;2024-03-02T01:21:11;9.30;99.90
21612;DHT22;47005;52.292;13.452;2024-03-02T01:23:37;9.30;99.90
21612;DHT22;47005;52.292;13.452;2024-03-02T01:26:03;9.30;99.90
21612;DHT22;47005;52.292;13.452;2024-03-02T01:28:28;9.30;99.90
21612;DHT22;47005;52.292;13.452;2024-03-02T01:30:54;9.30;99.90
21612;DHT22;47005;52.292;13.452;2024-03-02T01:33:20;9.30;99.90
21612;DHT22;47005;52.292;13.452;2024-03-02T01:35:46;9.30;99.90
21612;DHT22;47005;52.292;13.452;2024-03-02T01:38:12;9.30;99.90
21612;DHT22;47005;52.292;13.452;2024-03-02T01:40:38;9.30;99.90
21612;DHT22;47005;52.292;13.452;2024-03-02T01:43:05;9.30;99.90
21612;DHT22;47005;52.292;13.452;2024-03-02T01:45:31;9.30;99.90
21612;DHT22;47005;52.292;13.452;2024-03-02T01:47:57;9.30;99.90
21612;DHT22;47005;52.292;13.452;2024-03-02T01:50:33;9.40;99.90
21612;DHT22;47005;52.292;13.452;2024-03-02T01:53:00;9.30;99.90
21612;DHT22;47005;52.292;13.452;2024-03-02T01:55:25;9.30;99.90
21612;DHT22;47005;52.292;13.452;2024-03-02T01:57:52;9.30;99.90
21612;DHT22;47005;52.292;13.452;2024-03-02T02:00:21;9.30;99.90
21612;DHT22;47005;52.292;13.452;2024-03-02T02:02:50;9.30;99.90
21612;DHT22;47005;52.292;13.452;2024-03-02T02:05:16;9.30;99.90
21612;DHT22;47005;52.292;13.452;2024-03-02T02:07:42;9.30;99.90
21612;DHT22;47005;52.292;13.452;2024-03-02T02:10:09;9.30;99.90
21612;DHT22;47005;52.292;13.452;2024-03-02T02:12:35;9.30;99.90
21612;DHT22;47005;52.292;13.452;2024-03-02T02:15:01;9.30;99.90
21612;DHT22;47005;52.292;13.452;2024-03-02T02:17:27;9.30;99.90
21612;DHT22;47005;52.292;13.452;2024-03-02T02:19:52;9.30;99.90
21612;DHT22;47005;52.292;13.452;2024-03-02T02:22:18;9.30;99.90
21612;DHT22;47005;52.292;13.452;2024-03-02T02:24:44;9.30;99.90
21612;DHT22;47005;52.292;13.452;2024-03-02T02:27:09;9.30;99.90
21612;DHT22;47005;52.292;13.452;2024-03-02T02:29:36;9.30;99.90
21612;DHT22;47005;52.292;13.452;2024-03-02T02:32:01;9.30;99.90
21612;DHT22;47005;52.292;13.452;2024-03-02T02:34:27;9.30;99.90
21612;DHT22;47005;52.292;13.452;2024-03-02T02:36:53;9.30;99.90
21612;DHT22;47005;52.292;13.452;2024-03-02T02:39:21;9.30;99.90
21612;DHT22;47005;52.292;13.452;2024-03-02T02:41:47;9.30;99.90
21612;DHT22;47005;52.292;13.452;2024-03-02T02:44:13;9.40;99.90
21612;DHT22;47005;52.292;13.452;2024-03-02T02:46:39;9.30;99.90
21612;DHT22;47005;52.292;13.452;2024-03-02T02:49:05;9.40;99.90
21612;DHT22;47005;52.292;13.452;2024-03-02T02:51:31;9.40;99.90
21612;DHT22;47005;52.292;13.452;2024-03-02T02:53:57;9.40;99.90
21612;DHT22;47005;52.292;13.452;2024-03-02T02:56:22;9.40;99.90
21612;DHT22;47005;52.292;13.452;2024-03-02T02:58:48;9.40;99.90
21612;DHT22;47005;52.292;13.452;2024-03-02T03:01:15;9.40;99.90
21612;DHT22;47005;52.292;13.452;2024-03-02T03:03:43;9.40;99.90
21612;DHT22;47005;52.292;13.452;2024-03-02T03:06:09;9.40;99.90
21612;DHT22;47005;52.292;13.452;2024-03-02T03:08:35;9.40;99.90
21612;DHT22;47005;52.292;13.452;2024-03-02T03:11:00;9.40;99.90
21612;DHT22;47005;52.292;13.452;2024-03-02T03:13:26;9.40;99.90
21612;DHT22;47005;52.292;13.452;2024-03-02T03:15:52;9.40;99.90
21612;DHT22;47005;52.292;13.452;2024-03-02T03:18:18;9.50;99.90
21612;DHT22;47005;52.292;13.452;2024-03-02T03:20:44;9.50;99.90
21612;DHT22;47005;52.292;13.452;2024-03-02T03:23:09;9.50;99.90
21612;DHT22;47005;52.292;13.452;2024-03-02T03:25:40;9.50;99.90
21612;DHT22;47005;52.292;13.452;2024-03-02T03:28:06;9.50;99.90
21612;DHT22;47005;52.292;13.452;2024-03-02T03:30:32;9.50;99.90
21612;DHT22;47005;52.292;13.452;2024-03-02T03:32:58;9.50;99.90
21612;DHT22;47005;52.292;13.452;2024-03-02T03:35:23;9.50;99.90
21612;DHT22;47005;52.292;13.452;2024-03-02T03:37:49;9.50;99.90
21612;DHT22;47005;52.292;13.452;2024-03-02T03:40:14;9.50;99.90
21612;DHT22;47005;52.292;13.452;2024-03-02T03:42:40;9.50;99.90
21612;DHT22;47005;52.292;13.452;2024-03-02T03:45:06;9.60;99.90
21612;DHT22;47005;52.292;13.452;2024-03-02T03:47:32;9.50;99.90
21612;DHT22;47005;52.292;13.452;2024-03-02T03:49:58;9.50;99.90
21612;DHT22;47005;52.292;13.452;2024-03-02T03:52:24;9.50;99.90
21612;DHT22;47005;52.292;13.452;2024-03-02T03:54:50;9.50;99.90
21612;DHT22;47005;52.292;13.452;2024-03-02T03:57:15;9.60;99.90
21612;DHT22;47005;52.292;13.452;2024-03-02T03:59:41;9.60;99.90
21612;DHT22;47005;52.292;13.452;2024-03-02T04:02:08;9.60;99.90
21612;DHT22;47005;52.292;13.452;2024-03-02T04:04:34;9.60;99.90
21612;DHT22;47005;52.292;13.452;2024-03-02T04:07:00;9.60;99.90
21612;DHT22;47005;52.292;13.452;2024-03-02T04:09:25;9.60;99.90
21612;DHT22;47005;52.292;13.452;2024-03-02T04:11:51;9.60;99.90
21612;DHT22;47005;52.292;13.452;2024-03-02T04:14:17;9.60;99.90
21612;DHT22;47005;52.292;13.452;2024-03-02T04:16:42;9.60;99.90
21612;DHT22;47005;52.292;13.452;2024-03-02T04:19:08;9.60;99.90
21612;DHT22;47005;52.292;13.452;2024-03-02T04:21:34;9.60;99.90
21612;DHT22;47005;52.292;13.452;2024-03-02T04:23:59;9.60;99.90
21612;DHT22;47005;52.292;13.452;2024-03-02T04:26:25;9.60;99.90
21612;DHT22;47005;52.292;13.452;2024-03-02T04:28:52;9.70;99.90
21612;DHT22;47005;52.292;13.452;2024-03-02T04:31:18;9.60;99.90
21612;DHT22;47005;52.292;13.452;2024-03-02T04:33:43;9.70;99.90
21612;DHT22;47005;52.292;13.452;2024-03-02T04:36:09;9.70;99.90
21612;DHT22;47005;52.292;13.452;2024-03-02T04:38:35;9.70;99.90
21612;DHT22;47005;52.292;13.452;2024-03-02T04:41:01;9.70;99.90
21612;DHT22;47005;52.292;13.452;2024-03-02T04:43:27;9.70;99.90
21612;DHT22;47005;52.292;13.452;2024-03-02T04:45:52;9.70;99.90
21612;DHT22;47005;52.292;13.452;2024-03-02T04:48:18;9.70;99.90
21612;DHT22;47005;52.292;13.452;2024-03-02T04:50:44;9.70;99.90
21612;DHT22;47005;52.292;13.452;2024-03-02T04:53:10;9.70;99.90
21612;DHT22;47005;52.292;13.452;2024-03-02T04:55:36;9.70;99.90
21612;DHT22;47005;52.292;13.452;2024-03-02T04:58:05;9.70;99.90
21612;DHT22;47005;52.292;13.452;2024-03-02T05:00:30;9.70;99.90
21612;DHT22;47005;52.292;13.452;2024-03-02T05:02:56;9.70;99.90
21612;DHT22;47005;52.292;13.452;2024-03-02T05:05:22;9.70;99.90
21612;DHT22;47005;52.292;13.452;2024-03-02T05:07:47;9.70;99.90
21612;DHT22;47005;52.292;13.452;2024-03-02T05:10:13;9.70;99.90
21612;DHT22;47005;52.292;13.452;2024-03-02T05:12:39;9.70;99.90
21612;DHT22;47005;52.292;13.452;2024-03-02T05:15:08;9.70;99.90
21612;DHT22;47005;52.292;13.452;2024-03-02T05:17:36;9.70;99.90
21612;DHT22;47005;52.292;13.452;2024-03-02T05:20:02;9.70;99.90
21612;DHT22;47005;52.292;13.452;2024-03-02T05:22:28;9.80;99.90
21612;DHT22;47005;52.292;13.452;2024-03-02T05:24:54;9.70;99.90
21612;DHT22;47005;52.292;13.452;2024-03-02T05:27:19;9.70;99.90
21612;DHT22;47005;52.292;13.452;2024-03-02T05:29:45;9.70;99.90
21612;DHT22;47005;52.292;13.452;2024-03-02T05:32:11;9.70;99.90
21612;DHT22;47005;52.292;13.452;2024-03-02T05:34:36;9.70;99.90
21612;DHT22;47005;52.292;13.452;2024-03-02T05:37:02;9.70;99.90
21612;DHT22;47005;52.292;13.452;2024-03-02T05:39:27;9.70;99.90
21612;DHT22;47005;52.292;13.452;2024-03-02T05:41:53;9.70;99.90
21612;DHT22;47005;52.292;13.452;2024-03-02T05:44:19;9.70;99.90
21612;DHT22;47005;52.292;13.452;2024-03-02T05:46:45;9.70;99.90
21612;DHT22;47005;52.292;13.452;2024-03-02T05:49:11;9.70;99.90
21612;DHT22;47005;52.292;13.452;2024-03-02T05:51:36;9.70;99.90
21612;DHT22;47005;52.292;13.452;2024-03-02T05:54:02;9.70;99.90
21612;DHT22;47005;52.292;13.452;2024-03-02T05:56:28;9.70;99.90
21612;DHT22;47005;52.292;13.452;2024-03-02T05:58:54;9.70;99.90
21612;DHT22;47005;52.292;13.452;2024-03-02T06:01:42;9.70;99.90
21612;DHT22;47005;52.292;13.452;2024-03-02T06:04:09;9.70;99.90
21612;DHT22;47005;52.292;13.452;2024-03-02T06:06:36;9.70;99.90
21612;DHT22;47005;52.292;13.452;2024-03-02T06:09:03;9.70;99.90
21612;DHT22;47005;52.292;13.452;2024-03-02T06:11:39;9.70;99.90
21612;DHT22;47005;52.292;13.452;2024-03-02T06:14:05;9.70;99.90
21612;DHT22;47005;52.292;13.452;2024-03-02T06:16:31;9.70;99.90
21612;DHT22;47005;52.292;13.452;2024-03-02T06:18:57;9.70;99.90
21612;DHT22;47005;52.292;13.452;2024-03-02T06:21:26;9.70;99.90
21612;DHT22;47005;52.292;13.452;2024-03-02T06:23:52;9.70;99.90
21612;DHT22;47005;52.292;13.452;2024-03-02T06:26:18;9.70;99.90
21612;DHT22;47005;52.292;13.452;2024-03-02T06:28:44;9.70;99.90
21612;DHT22;47005;52.292;13.452;2024-03-02T06:31:10;9.70;99.90
21612;DHT22;47005;52.292;13.452;2024-03-02T06:33:36;9.70;99.90
21612;DHT22;47005;52.292;13.452;2024-03-02T06:36:02;9.70;99.90
21612;DHT22;47005;52.292;13.452;2024-03-02T06:38:28;9.70;99.90
21612;DHT22;47005;52.292;13.452;2024-03-02T06:40:53;9.70;99.90
21612;DHT22;47005;52.292;13.452;2024-03-02T06:43:23;9.70;99.90
21612;DHT22;47005;52.292;13.452;2024-03-02T06:45:49;9.70;99.90
21612;DHT22;47005;52.292;13.452;2024-03-02T06:48:18;9.70;99.90
21612;DHT22;47005;52.292;13.452;2024-03-02T06:50:49;9.70;99.90
21612;DHT22;47005;52.292;13.452;2024-03-02T06:53:15;9.70;99.90
21612;DHT22;47005;52.292;13.452;2024-03-02T06:55:45;9.70;99.90
21612;DHT22;47005;52.292;13.452;2024-03-02T06:58:12;9.80;99.90
21612;DHT22;47005;52.292;13.452;2024-03-02T07:00:37;9.80;99.90
21612;DHT22;47005;52.292;13.452;2024-03-02T07:03:03;9.80;99.90
21612;DHT22;47005;52.292;13.452;2024-03-02T07:05:29;9.80;99.90
21612;DHT22;47005;52.292;13.452;2024-03-02T07:07:55;9.80;99.90
21612;DHT22;47005;52.292;13.452;2024-03-02T07:10:20;9.80;99.90
21612;DHT22;47005;52.292;13.452;2024-03-02T07:12:46;9.80;99.90
21612;DHT22;47005;52.292;13.452;2024-03-02T07:15:11;9.80;99.90
21612;DHT22;47005;52.292;13.452;2024-03-02T07:17:54;9.80;99.90
21612;DHT22;47005;52.292;13.452;2024-03-02T07:20:20;9.80;99.90
21612;DHT22;47005;52.292;13.452;2024-03-02T07:22:46;9.80;99.90
21612;DHT22;47005;52.292;13.452;2024-03-02T07:25:11;9.80;99.90
21612;DHT22;47005;52.292;13.452;2024-03-02T07:27:38;9.80;99.90
21612;DHT22;47005;52.292;13.452;2024-03-02T07:30:04;9.80;99.90
21612;DHT22;47005;52.292;13.452;2024-03-02T07:32:30;9.80;99.90
21612;DHT22;47005;52.292;13.452;2024-03-02T07:34:56;9.80;99.90
21612;DHT22;47005;52.292;13.452;2024-03-02T07:37:23;9.80;99.90
21612;DHT22;47005;52.292;13.452;2024-03-02T07:39:48;9.90;99.90
21612;DHT22;47005;52.292;13.452;2024-03-02T07:42:14;9.90;99.90
21612;DHT22;47005;52.292;13.452;2024-03-02T07:44:40;9.90;99.90
21612;DHT22;47005;52.292;13.452;2024-03-02T07:47:06;9.90;99.90
21612;DHT22;47005;52.292;13.452;2024-03-02T07:49:32;9.90;99.90
21612;DHT22;47005;52.292;13.452;2024-03-02T07:51:58;9.90;99.90
21612;DHT22;47005;52.292;13.452;2024-03-02T07:54:24;9.90;99.90
21612;DHT22;47005;52.292;13.452;2024-03-02T07:56:49;10.00;99.90
21612;DHT22;47005;52.292;13.452;2024-03-02T07:59:15;10.00;99.90
21612;DHT22;47005;52.292;13.452;2024-03-02T08:01:41;10.00;99.90
21612;DHT22;47005;52.292;13.452;2024-03-02T08:04:06;10.00;99.90
21612;DHT22;47005;52.292;13.452;2024-03-02T08:06:33;10.00;99.90
21612;DHT22;47005;52.292;13.452;2024-03-02T08:08:59;10.00;99.90
21612;DHT22;47005;52.292;13.452;2024-03-02T08:11:25;10.00;99.90
21612;DHT22;47005;52.292;13.452;2024-03-02T08:13:52;10.10;99.90
21612;DHT22;47005;52.292;13.452;2024-03-02T08:16:21;10.10;99.90
21612;DHT22;47005;52.292;13.452;2024-03-02T08:18:48;10.10;99.90
21612;DHT22;47005;52.292;13.452;2024-03-02T08:21:14;10.10;99.90
21612;DHT22;47005;52.292;13.452;2024-03-02T08:23:40;10.10;99.90
21612;DHT22;47005;52.292;13.452;2024-03-02T08:26:07;10.10;99.90
21612;DHT22;47005;52.292;13.452;2024-03-02T08:28:33;10.10;99.90
21612;DHT22;47005;52.292;13.452;2024-03-02T08:30:59;10.10;99.90
21612;DHT22;47005;52.292;13.452;2024-03-02T08:33:24;10.20;99.90
21612;DHT22;47005;52.292;13.452;2024-03-02T08:35:50;10.20;99.90
21612;DHT22;47005;52.292;13.452;2024-03-02T08:38:16;10.20;99.90
21612;DHT22;47005;52.292;13.452;2024-03-02T08:40:42;10.20;99.90
21612;DHT22;47005;52.292;13.452;2024-03-02T08:43:07;10.20;99.90
21612;DHT22;47005;52.292;13.452;2024-03-02T08:45:33;10.20;99.90
21612;DHT22;47005;52.292;13.452;2024-03-02T08:48:00;10.20;99.90
21612;DHT22;47005;52.292;13.452;2024-03-02T08:50:25;10.20;99.90
21612;DHT22;47005;52.292;13.452;2024-03-02T08:52:51;10.30;99.90
21612;DHT22;47005;52.292;13.452;2024-03-02T08:55:17;10.20;99.90
21612;DHT22;47005;52.292;13.452;2024-03-02T08:57:42;10.30;99.90
21612;DHT22;47005;52.292;13.452;2024-03-02T09:00:09;10.30;99.90
21612;DHT22;47005;52.292;13.452;2024-03-02T09:02:34;10.30;99.90
21612;DHT22;47005;52.292;13.452;2024-03-02T09:05:01;10.30;99.90
21612;DHT22;47005;52.292;13.452;2024-03-02T09:07:26;10.30;99.90
21612;DHT22;47005;52.292;13.452;2024-03-02T09:09:52;10.30;99.90
21612;DHT22;47005;52.292;13.452;2024-03-02T09:12:18;10.30;99.90
21612;DHT22;47005;52.292;13.452;2024-03-02T09:14:44;10.30;99.90
21612;DHT22;47005;52.292;13.452;2024-03-02T09:17:11;10.40;99.90
21612;DHT22;47005;52.292;13.452;2024-03-02T09:19:37;10.40;99.90
21612;DHT22;47005;52.292;13.452;2024-03-02T09:22:04;10.40;99.90
21612;DHT22;47005;52.292;13.452;2024-03-02T09:24:31;10.40;99.90
21612;DHT22;47005;52.292;13.452;2024-03-02T09:26:57;10.40;99.90
21612;DHT22;47005;52.292;13.452;2024-03-02T09:29:22;10.40;99.90
21612;DHT22;47005;52.292;13.452;2024-03-02T09:31:48;10.40;99.90
21612;DHT22;47005;52.292;13.452;2024-03-02T09:34:15;10.40;99.90
21612;DHT22;47005;52.292;13.452;2024-03-02T09:36:41;10.40;99.90
21612;DHT22;47005;52.292;13.452;2024-03-02T09:39:10;10.50;99.90
21612;DHT22;47005;52.292;13.452;2024-03-02T09:41:38;10.50;99.90
21612;DHT22;47005;52.292;13.452;2024-03-02T09:44:05;10.50;99.90
21612;DHT22;47005;52.292;13.452;2024-03-02T09:46:31;10.50;99.90
21612;DHT22;47005;52.292;13.452;2024-03-02T09:48:57;10.60;99.90
21612;DHT22;47005;52.292;13.452;2024-03-02T09:51:23;10.60;99.90
21612;DHT22;47005;52.292;13.452;2024-03-02T09:53:49;10.70;99.90
21612;DHT22;47005;52.292;13.452;2024-03-02T09:56:15;10.60;99.90
21612;DHT22;47005;52.292;13.452;2024-03-02T09:58:41;10.80;99.90
21612;DHT22;47005;52.292;13.452;2024-03-02T10:01:07;10.80;99.90
21612;DHT22;47005;52.292;13.452;2024-03-02T10:03:33;10.80;99.90
21612;DHT22;47005;52.292;13.452;2024-03-02T10:06:18;10.80;99.90
21612;DHT22;47005;52.292;13.452;2024-03-02T10:08:44;10.90;99.90
21612;DHT22;47005;52.292;13.452;2024-03-02T10:11:10;11.00;99.90
21612;DHT22;47005;52.292;13.452;2024-03-02T10:13:36;11.00;99.90
21612;DHT22;47005;52.292;13.452;2024-03-02T10:16:12;11.00;99.90
21612;DHT22;47005;52.292;13.452;2024-03-02T10:18:37;11.10;99.90
21612;DHT22;47005;52.292;13.452;2024-03-02T10:21:13;11.10;99.90
21612;DHT22;47005;52.292;13.452;2024-03-02T10:23:39;11.10;99.90
21612;DHT22;47005;52.292;13.452;2024-03-02T10:26:17;11.20;99.90
21612;DHT22;47005;52.292;13.452;2024-03-02T10:28:47;11.20;99.90
21612;DHT22;47005;52.292;13.452;2024-03-02T10:31:25;11.30;99.90
21612;DHT22;47005;52.292;13.452;2024-03-02T10:33:54;11.30;99.90
21612;DHT22;47005;52.292;13.452;2024-03-02T10:36:20;11.30;99.90
21612;DHT22;47005;52.292;13.452;2024-03-02T10:38:46;11.40;99.90
21612;DHT22;47005;52.292;13.452;2024-03-02T10:41:18;11.40;99.90
21612;DHT22;47005;52.292;13.452;2024-03-02T10:43:44;11.50;99.90
21612;DHT22;47005;52.292;13.452;2024-03-02T10:46:11;11.50;99.90
21612;DHT22;47005;52.292;13.452;2024-03-02T10:48:39;11.50;99.90
21612;DHT22;47005;52.292;13.452;2024-03-02T10:51:06;11.50;99.90
21612;DHT22;47005;52.292;13.452;2024-03-02T10:53:32;11.60;99.90
21612;DHT22;47005;52.292;13.452;2024-03-02T10:55:58;11.60;99.90
21612;DHT22;47005;52.292;13.452;2024-03-02T10:58:32;11.60;99.90
21612;DHT22;47005;52.292;13.452;2024-03-02T11:01:03;11.70;99.90
21612;DHT22;47005;52.292;13.452;2024-03-02T11:03:35;11.70;99.90
21612;DHT22;47005;52.292;13.452;2024-03-02T11:06:03;11.80;99.90
21612;DHT22;47005;52.292;13.452;2024-03-02T11:08:34;11.80;99.90
21612;DHT22;47005;52.292;13.452;2024-03-02T11:11:06;11.90;99.90
21612;DHT22;47005;52.292;13.452;2024-03-02T11:13:33;11.90;99.90
21612;DHT22;47005;52.292;13.452;2024-03-02T11:16:05;11.90;99.90
21612;DHT22;47005;52.292;13.452;2024-03-02T11:18:32;11.90;99.90
21612;DHT22;47005;52.292;13.452;2024-03-02T11:20:59;12.00;99.90
21612;DHT22;47005;52.292;13.452;2024-03-02T11:23:34;12.00;99.90
21612;DHT22;47005;52.292;13.452;2024-03-02T11:28:44;12.00;99.90
21612;DHT22;47005;52.292;13.452;2024-03-02T11:31:11;12.00;99.90
21612;DHT22;47005;52.292;13.452;2024-03-02T11:33:36;12.10;99.90
21612;DHT22;47005;52.292;13.452;2024-03-02T11:36:02;12.10;99.90
21612;DHT22;47005;52.292;13.452;2024-03-02T11:38:30;12.10;99.90
21612;DHT22;47005;52.292;13.452;2024-03-02T11:40:58;12.10;99.90
21612;DHT22;47005;52.292;13.452;2024-03-02T11:43:26;12.20;99.90
21612;DHT22;47005;52.292;13.452;2024-03-02T11:46:00;12.20;99.90
21612;DHT22;47005;52.292;13.452;2024-03-02T11:48:29;12.30;99.90
21612;DHT22;47005;52.292;13.452;2024-03-02T11:50:58;12.30;99.90
21612;DHT22;47005;52.292;13.452;2024-03-02T11:53:26;12.40;99.90
21612;DHT22;47005;52.292;13.452;2024-03-02T11:55:55;12.40;99.90
21612;DHT22;47005;52.292;13.452;2024-03-02T11:58:21;12.50;99.90
21612;DHT22;47005;52.292;13.452;2024-03-02T12:00:58;12.50;99.90
21612;DHT22;47005;52.292;13.452;2024-03-02T12:03:25;12.60;99.90
21612;DHT22;47005;52.292;13.452;2024-03-02T12:05:53;12.70;99.90
21612;DHT22;47005;52.292;13.452;2024-03-02T12:08:19;12.70;99.90
21612;DHT22;47005;52.292;13.452;2024-03-02T12:11:00;12.80;99.90
21612;DHT22;47005;52.292;13.452;2024-03-02T12:13:26;12.80;99.90
21612;DHT22;47005;52.292;13.452;2024-03-02T12:15:53;12.90;99.90
21612;DHT22;47005;52.292;13.452;2024-03-02T12:18:23;12.90;99.90
21612;DHT22;47005;52.292;13.452;2024-03-02T12:20:50;12.90;99.90
21612;DHT22;47005;52.292;13.452;2024-03-02T12:23:21;13.00;99.90
21612;DHT22;47005;52.292;13.452;2024-03-02T12:25:47;13.00;99.90
21612;DHT22;47005;52.292;13.452;2024-03-02T12:28:13;13.00;99.90
21612;DHT22;47005;52.292;13.452;2024-03-02T12:30:39;13.10;99.90
21612;DHT22;47005;52.292;13.452;2024-03-02T12:33:05;13.10;99.90
21612;DHT22;47005;52.292;13.452;2024-03-02T12:35:31;13.20;99.90
21612;DHT22;47005;52.292;13.452;2024-03-02T12:37:57;13.20;99.90
21612;DHT22;47005;52.292;13.452;2024-03-02T12:40:23;13.30;99.90
21612;DHT22;47005;52.292;13.452;2024-03-02T12:42:50;13.30;99.90
21612;DHT22;47005;52.292;13.452;2024-03-02T12:45:16;13.40;99.90
21612;DHT22;47005;52.292;13.452;2024-03-02T12:47:49;13.40;99.90
21612;DHT22;47005;52.292;13.452;2024-03-02T12:50:14;13.50;99.90
21612;DHT22;47005;52.292;13.452;2024-03-02T12:52:40;13.50;99.90
21612;DHT22;47005;52.292;13.452;2024-03-02T12:55:06;13.50;99.90
21612;DHT22;47005;52.292;13.452;2024-03-02T12:57:33;13.60;99.90
21612;DHT22;47005;52.292;13.452;2024-03-02T13:00:00;13.60;99.90
21612;DHT22;47005;52.292;13.452;2024-03-02T13:02:31;13.60;99.90
21612;DHT22;47005;52.292;13.452;2024-03-02T13:04:58;13.70;99.90
21612;DHT22;47005;52.292;13.452;2024-03-02T13:07:24;13.70;99.90
21612;DHT22;47005;52.292;13.452;2024-03-02T13:09:51;13.70;99.90
21612;DHT22;47005;52.292;13.452;2024-03-02T13:12:17;13.80;99.90
21612;DHT22;47005;52.292;13.452;2024-03-02T13:14:44;13.80;99.90
21612;DHT22;47005;52.292;13.452;2024-03-02T13:17:10;13.80;99.90
21612;DHT22;47005;52.292;13.452;2024-03-02T13:19:35;13.80;99.90
21612;DHT22;47005;52.292;13.452;2024-03-02T13:22:01;13.80;99.90
21612;DHT22;47005;52.292;13.452;2024-03-02T13:24:31;13.80;99.90
21612;DHT22;47005;52.292;13.452;2024-03-02T13:26:56;13.80;99.90
21612;DHT22;47005;52.292;13.452;2024-03-02T13:29:24;13.90;99.90
21612;DHT22;47005;52.292;13.452;2024-03-02T13:31:50;13.90;99.90
21612;DHT22;47005;52.292;13.452;2024-03-02T13:34:16;13.90;99.90
21612;DHT22;47005;52.292;13.452;2024-03-02T13:36:42;13.90;99.90
21612;DHT22;47005;52.292;13.452;2024-03-02T13:39:07;13.90;99.90
21612;DHT22;47005;52.292;13.452;2024-03-02T13:41:36;13.90;99.90
21612;DHT22;47005;52.292;13.452;2024-03-02T13:44:02;13.90;99.90
21612;DHT22;47005;52.292;13.452;2024-03-02T13:46:28;14.00;99.90
21612;DHT22;47005;52.292;13.452;2024-03-02T13:48:54;14.00;99.90
21612;DHT22;47005;52.292;13.452;2024-03-02T13:51:20;14.00;99.90
21612;DHT22;47005;52.292;13.452;2024-03-02T13:53:46;14.00;99.90
21612;DHT22;47005;52.292;13.452;2024-03-02T13:56:11;14.10;99.90
21612;DHT22;47005;52.292;13.452;2024-03-02T13:58:37;14.10;99.90
21612;DHT22;47005;52.292;13.452;2024-03-02T14:01:04;14.10;99.90
21612;DHT22;47005;52.292;13.452;2024-03-02T14:03:30;14.20;99.90
21612;DHT22;47005;52.292;13.452;2024-03-02T14:05:56;14.20;99.90
21612;DHT22;47005;52.292;13.452;2024-03-02T14:08:22;14.20;99.90
21612;DHT22;47005;52.292;13.452;2024-03-02T14:10:48;14.20;99.90
21612;DHT22;47005;52.292;13.452;2024-03-02T14:13:14;14.30;99.90
21612;DHT22;47005;52.292;13.452;2024-03-02T14:15:41;14.30;99.90
21612;DHT22;47005;52.292;13.452;2024-03-02T14:18:07;14.30;99.90
21612;DHT22;47005;52.292;13.452;2024-03-02T14:20:35;14.30;99.90
21612;DHT22;47005;52.292;13.452;2024-03-02T14:23:01;14.30;99.90
21612;DHT22;47005;52.292;13.452;2024-03-02T14:25:28;14.30;99.90
21612;DHT22;47005;52.292;13.452;2024-03-02T14:27:57;14.40;99.90
21612;DHT22;47005;52.292;13.452;2024-03-02T14:30:23;14.40;99.90
21612;DHT22;47005;52.292;13.452;2024-03-02T14:32:49;14.40;99.90
21612;DHT22;47005;52.292;13.452;2024-03-02T14:35:15;14.40;99.90
21612;DHT22;47005;52.292;13.452;2024-03-02T14:37:40;14.50;99.90
21612;DHT22;47005;52.292;13.452;2024-03-02T14:40:07;14.50;99.90
21612;DHT22;47005;52.292;13.452;2024-03-02T14:42:35;14.60;99.90
21612;DHT22;47005;52.292;13.452;2024-03-02T14:45:01;14.50;99.90
21612;DHT22;47005;52.292;13.452;2024-03-02T14:47:29;14.60;99.90
21612;DHT22;47005;52.292;13.452;2024-03-02T14:49:55;14.60;99.90
21612;DHT22;47005;52.292;13.452;2024-03-02T14:52:21;14.60;99.90
21612;DHT22;47005;52.292;13.452;2024-03-02T14:54:46;14.60;99.90
21612;DHT22;47005;52.292;13.452;2024-03-02T14:57:12;14.70;99.90
21612;DHT22;47005;52.292;13.452;2024-03-02T14:59:38;14.70;99.90
21612;DHT22;47005;52.292;13.452;2024-03-02T15:02:04;14.70;99.90
21612;DHT22;47005;52.292;13.452;2024-03-02T15:04:30;14.70;99.90
21612;DHT22;47005;52.292;13.452;2024-03-02T15:06:56;14.80;99.90
21612;DHT22;47005;52.292;13.452;2024-03-02T15:09:21;14.90;99.90
21612;DHT22;47005;52.292;13.452;2024-03-02T15:11:47;15.00;99.90
21612;DHT22;47005;52.292;13.452;2024-03-02T15:14:13;15.00;99.90
21612;DHT22;47005;52.292;13.452;2024-03-02T15:16:39;15.10;99.90
21612;DHT22;47005;52.292;13.452;2024-03-02T15:19:04;15.20;99.90
21612;DHT22;47005;52.292;13.452;2024-03-02T15:21:30;15.20;99.90